This is the latest recevied weather packets stored in our database for station/object AB1AU. If no packets are shown the sender has not sent any weather packets the latest 1 day(s).
| Time | Temp. | Humidity | Pressure | Rain* | Wind** | Luminosity | Snow |
|---|---|---|---|---|---|---|---|
| 1836274696 | 11.11° C | 59% | 1021.7 hPa | 0 mm | 0 m/s | 0 W/m² | - |
| 1836274549 | 11.11° C | 61% | 1022.2 hPa | 0 mm | 0 m/s | 0 W/m² | - |
| 1836274394 | 11.67° C | 58% | 1021.6 hPa | 0 mm | 0 m/s | 0 W/m² | - |
| 1836274247 | 11.11° C | 60% | 1022 hPa | 0 mm | 0 m/s | 0 W/m² | - |
| 1836274092 | 11.67° C | 58% | 1021.6 hPa | 0 mm | 0 m/s | 0 W/m² | - |
| 1778054060 | 12.78° C | 77% | 1010.2 hPa | 0 mm | 0.45 m/s, 235° | 0 W/m² | - |
| 1778053769 | 12.78° C | 77% | 1010.2 hPa | 0 mm | 0 m/s | 0 W/m² | - |
| 1778053453 | 12.78° C | 77% | 1009.7 hPa | 0 mm | 0 m/s | 0 W/m² | - |
| 1778053150 | 12.78° C | 77% | 1010 hPa | 0 mm | 0.45 m/s, 231° | 0 W/m² | - |
| 1778052848 | 12.78° C | 77% | 1010 hPa | 0 mm | 0.45 m/s, 217° | 0 W/m² | - |
| 1778052545 | 12.78° C | 77% | 1010 hPa | 0 mm | 0 m/s | 0 W/m² | - |
| 1778052243 | 12.78° C | 77% | 1009.8 hPa | 0 mm | 0 m/s | 0 W/m² | - |
| 1778051940 | 12.78° C | 76% | 1009.8 hPa | 0 mm | 0.45 m/s, 338° | 0 W/m² | - |
| 1778051638 | 13.33° C | 77% | 1009.8 hPa | 0 mm | 0.45 m/s, 280° | 0 W/m² | - |
| 1778051335 | 12.78° C | 77% | 1009.5 hPa | 0 mm | 0 m/s | 0 W/m² | - |
| 1778051032 | 12.78° C | 76% | 1009.1 hPa | 0 mm | 0 m/s | 0 W/m² | - |
| 1778050729 | 12.78° C | 76% | 1008.9 hPa | 0 mm | 0 m/s | 0 W/m² | - |
| 1778050427 | 13.33° C | 76% | 1008.9 hPa | 0 mm | 0 m/s | 0 W/m² | - |
| 1778050123 | 13.33° C | 76% | 1009 hPa | 0 mm | 0 m/s | 0 W/m² | - |
| 1778049818 | 13.33° C | 76% | 1009 hPa | 0 mm | 0 m/s | 0 W/m² | - |
| 1778049516 | 13.33° C | 76% | 1009 hPa | 0 mm | 0 m/s | 0 W/m² | - |
| 1778049214 | 13.33° C | 76% | 1008.9 hPa | 0 mm | 0 m/s | 0 W/m² | - |
| 1778048912 | 13.33° C | 76% | 1008.9 hPa | 0 mm | 0 m/s | 0 W/m² | - |
| 1778048609 | 13.33° C | 76% | 1008.8 hPa | 0 mm | 0.89 m/s, 169° | 0 W/m² | - |
| 1778048305 | 13.33° C | 76% | 1009 hPa | 0 mm | 0 m/s | 0 W/m² | - |
* Rain latest hour (hover to see other rain measurements)
** Current wind speed in m/s (hover to see current wind gust speed)